Time;durP1;ratioP1;P1;durP2;ratioP2;P2;SDS_P1;SDS_P2;PMS_P1;PMS_P2;Temp;Humidity;BMP_temperature;BMP_pressure;BME280_temperature;BME280_humidity;BME280_pressure;Samples;Min_cycle;Max_cycle;Signal;HPM_P1;HPM_P2
2020/12/18 00:03:15;;;;;;;5.50;4.23;;;;;;;9.61;73.95;96067.25;6982691;28;20251;-78
2020/12/18 00:06:36;;;;;;;6.40;4.33;;;;;;;9.61;73.92;96063.75;6985640;28;20267;-76
2020/12/18 00:10:01;;;;;;;5.10;4.60;;;;;;;9.56;73.56;96060.59;7003819;28;20219;-76
2020/12/18 00:13:21;;;;;;;8.43;7.53;;;;;;;9.53;73.95;96063.47;7000786;28;20208;-76
2020/12/18 00:16:44;;;;;;;10.00;7.30;;;;;;;9.49;74.34;96060.22;6983551;28;20218;-73
2020/12/18 00:20:06;;;;;;;5.10;4.67;;;;;;;9.46;73.92;96050.66;6999198;28;20237;-73
2020/12/18 00:23:26;;;;;;;5.93;4.73;;;;;;;9.37;73.28;96061.91;7016447;28;20288;-74
2020/12/18 00:26:48;;;;;;;9.63;7.00;;;;;;;9.32;73.92;96061.41;7009387;28;20231;-75
2020/12/18 00:30:10;;;;;;;10.67;7.40;;;;;;;9.26;74.03;96064.47;7013689;28;20357;-77
2020/12/18 00:33:30;;;;;;;5.90;5.40;;;;;;;9.23;74.22;96061.22;7013759;28;20214;-76
2020/12/18 00:36:52;;;;;;;6.83;6.00;;;;;;;9.15;73.98;96061.75;6998865;28;20207;-76
2020/12/18 00:40:12;;;;;;;7.50;5.47;;;;;;;9.08;73.46;96062.28;7002319;28;20272;-76
2020/12/18 00:43:34;;;;;;;6.03;5.00;;;;;;;9.00;73.65;96060.19;6994692;28;20215;-73
2020/12/18 00:46:54;;;;;;;6.77;5.50;;;;;;;8.96;73.78;96062.19;6988289;28;20227;-73
2020/12/18 00:50:15;;;;;;;7.70;6.60;;;;;;;8.94;73.35;96066.75;6997153;28;20302;-72
2020/12/18 00:53:36;;;;;;;8.30;6.17;;;;;;;8.94;73.76;96061.47;6991128;28;20302;-73
2020/12/18 00:56:56;;;;;;;7.70;6.50;;;;;;;8.93;74.23;96061.56;6973424;28;20215;-73
2020/12/18 01:00:17;;;;;;;5.30;4.80;;;;;;;8.84;73.36;96062.19;6990474;28;20214;-73
2020/12/18 01:03:40;;;;;;;5.97;4.97;;;;;;;8.72;73.56;96053.28;6994865;28;20219;-73
2020/12/18 01:07:00;;;;;;;6.90;5.37;;;;;;;8.65;73.98;96056.47;6979536;28;20207;-73
2020/12/18 01:10:21;;;;;;;5.17;4.20;;;;;;;8.64;74.78;96060.91;6989650;28;20313;-73
2020/12/18 01:13:41;;;;;;;5.83;5.20;;;;;;;8.70;74.78;96071.06;7005569;28;20235;-73
2020/12/18 01:17:01;;;;;;;7.80;6.20;;;;;;;8.78;74.77;96071.41;6990844;28;20275;-73
2020/12/18 01:20:22;;;;;;;7.93;7.17;;;;;;;8.80;74.87;96066.84;6996022;28;20755;-73
2020/12/18 01:23:42;;;;;;;6.37;5.30;;;;;;;8.75;74.35;96078.72;6994248;28;20225;-73
2020/12/18 01:27:02;;;;;;;6.00;5.37;;;;;;;8.71;74.64;96074.56;6990580;28;20322;-73
2020/12/18 01:30:23;;;;;;;7.97;6.70;;;;;;;8.67;74.75;96067.78;7006346;28;20227;-73
2020/12/18 01:33:43;;;;;;;6.23;5.50;;;;;;;8.63;75.10;96071.59;6993206;28;20215;-73
2020/12/18 01:37:04;;;;;;;7.27;6.23;;;;;;;8.65;75.02;96067.88;6994535;28;20559;-74
2020/12/18 01:40:24;;;;;;;8.33;5.67;;;;;;;8.67;75.03;96071.28;6993560;28;20226;-73
2020/12/18 01:43:45;;;;;;;7.90;6.00;;;;;;;8.72;75.19;96073.63;7007988;27;20271;-73
2020/12/18 01:47:23;;;;;;;8.53;6.23;;;;;;;8.72;74.99;96082.41;6991999;28;20246;-73
2020/12/18 01:50:44;;;;;;;6.93;6.23;;;;;;;8.67;74.93;96076.59;6968778;28;20226;-73
2020/12/18 01:54:06;;;;;;;8.40;6.47;;;;;;;8.55;74.61;96074.78;6979767;28;20214;-73
2020/12/18 01:57:27;;;;;;;7.07;5.77;;;;;;;8.48;75.27;96074.34;6949864;28;20714;-73
2020/12/18 02:00:48;;;;;;;6.80;5.60;;;;;;;8.45;75.32;96071.88;6966927;28;21032;-74
2020/12/18 02:04:08;;;;;;;7.73;6.97;;;;;;;8.46;75.59;96068.28;6984450;28;20609;-73
2020/12/18 02:07:29;;;;;;;13.13;7.67;;;;;;;8.46;76.36;96073.59;7004739;28;20219;-73
2020/12/18 02:10:50;;;;;;;10.73;7.47;;;;;;;8.46;76.04;96075.38;7001463;28;20325;-73
2020/12/18 02:14:15;;;;;;;7.70;6.93;;;;;;;8.52;76.33;96078.47;7005710;28;20217;-72
2020/12/18 02:17:35;;;;;;;8.53;5.93;;;;;;;8.57;76.19;96079.00;6994599;28;20693;-73
2020/12/18 02:20:58;;;;;;;7.40;4.00;;;;;;;8.56;75.81;96074.66;6984778;28;20222;-73
2020/12/18 02:24:26;;;;;;;6.53;3.77;;;;;;;8.64;76.47;96071.50;6996234;28;20271;-75
2020/12/18 02:27:49;;;;;;;4.60;3.80;;;;;;;8.66;76.25;96069.59;7025897;28;20208;-73
2020/12/18 02:31:12;;;;;;;6.13;3.93;;;;;;;8.71;76.14;96072.78;7022393;28;20230;-73
2020/12/18 02:34:34;;;;;;;4.80;4.40;;;;;;;8.73;75.88;96076.19;7009124;28;20226;-73
2020/12/18 02:37:54;;;;;;;6.60;5.60;;;;;;;8.75;75.54;96076.91;6990341;28;20827;-73
2020/12/18 02:41:14;;;;;;;5.37;4.83;;;;;;;8.74;75.85;96077.88;7028144;28;20233;-73
2020/12/18 02:44:35;;;;;;;7.70;5.63;;;;;;;8.69;74.89;96079.13;7001680;28;20217;-73
2020/12/18 02:47:55;;;;;;;6.63;4.97;;;;;;;8.67;75.19;96071.28;7026916;28;20771;-73
2020/12/18 02:51:15;;;;;;;6.63;4.87;;;;;;;8.69;75.38;96065.91;7014227;28;20233;-73
2020/12/18 02:54:36;;;;;;;6.37;4.87;;;;;;;8.64;75.08;96068.88;7013598;28;20676;-73
2020/12/18 02:57:57;;;;;;;13.63;5.03;;;;;;;8.56;74.50;96076.47;7005869;28;20215;-73
2020/12/18 03:01:18;;;;;;;10.60;5.03;;;;;;;8.53;74.66;96068.75;7015456;28;20215;-73
2020/12/18 03:04:41;;;;;;;45.93;6.50;;;;;;;8.48;74.63;96071.69;6994888;28;20213;-74
2020/12/18 03:08:02;;;;;;;6.80;4.27;;;;;;;8.41;74.06;96069.56;7017471;28;20271;-73
2020/12/18 03:11:22;;;;;;;5.87;5.37;;;;;;;8.32;73.76;96072.81;7026924;28;20214;-73
2020/12/18 03:14:43;;;;;;;6.27;5.37;;;;;;;8.29;74.53;96070.38;7011428;28;20239;-72
2020/12/18 03:18:03;;;;;;;7.17;5.93;;;;;;;8.28;74.92;96072.16;7026332;27;20753;-73
2020/12/18 03:21:23;;;;;;;8.53;6.53;;;;;;;8.32;75.16;96067.53;7009376;28;20275;-73
2020/12/18 03:24:44;;;;;;;8.67;6.90;;;;;;;8.39;75.22;96069.69;7021890;28;20241;-73
2020/12/18 03:28:04;;;;;;;130.53;10.60;;;;;;;8.44;75.17;96074.66;7024619;28;20264;-73
2020/12/18 03:31:25;;;;;;;9.70;5.93;;;;;;;8.43;75.15;96067.66;7008151;28;20682;-74
2020/12/18 03:34:45;;;;;;;9.80;6.53;;;;;;;8.40;74.95;96083.75;7029283;28;20205;-74
2020/12/18 03:38:05;;;;;;;9.20;6.00;;;;;;;8.36;75.03;96077.81;7027078;28;20210;-74
2020/12/18 03:41:28;;;;;;;7.43;6.27;;;;;;;8.33;75.21;96072.72;7047748;27;20243;-74
2020/12/18 03:44:48;;;;;;;7.30;6.20;;;;;;;8.36;75.65;96069.00;7043520;27;20223;-73
2020/12/18 03:48:09;;;;;;;10.50;6.27;;;;;;;8.37;75.41;96068.06;7020279;28;20228;-74
2020/12/18 03:51:29;;;;;;;8.97;8.17;;;;;;;8.45;76.67;96071.06;7030381;27;20334;-74
2020/12/18 03:54:52;;;;;;;8.00;7.20;;;;;;;8.50;76.90;96069.78;6996108;28;20246;-73
2020/12/18 03:58:12;;;;;;;8.23;7.40;;;;;;;8.50;76.56;96071.59;7016271;28;20221;-73
2020/12/18 04:01:33;;;;;;;8.47;7.70;;;;;;;8.46;76.47;96070.09;7039181;27;20209;-73
2020/12/18 04:04:53;;;;;;;7.50;6.80;;;;;;;8.50;76.91;96061.03;7021622;27;20217;-73
2020/12/18 04:08:13;;;;;;;7.10;6.50;;;;;;;8.50;76.58;96061.03;6995285;28;20297;-73
2020/12/18 04:11:34;;;;;;;8.73;6.57;;;;;;;8.50;76.17;96061.84;7020708;28;20258;-73
2020/12/18 04:14:54;;;;;;;5.93;5.37;;;;;;;8.49;76.21;96049.59;7010425;28;20826;-73
2020/12/18 04:18:15;;;;;;;6.73;5.93;;;;;;;8.54;76.76;96049.25;7016245;28;20224;-71
2020/12/18 04:21:35;;;;;;;10.10;7.80;;;;;;;8.51;76.21;96055.59;6996451;28;20256;-73
2020/12/18 04:24:58;;;;;;;8.53;7.20;;;;;;;8.49;76.64;96046.94;6995865;28;20205;-73
2020/12/18 04:28:18;;;;;;;7.97;7.03;;;;;;;8.43;76.45;96052.63;7016469;28;20227;-73
2020/12/18 04:31:38;;;;;;;11.97;7.70;;;;;;;8.40;75.99;96049.34;7000666;28;20225;-73
2020/12/18 04:35:01;;;;;;;7.77;7.07;;;;;;;8.33;75.79;96048.06;7013686;28;20785;-73
2020/12/18 04:38:22;;;;;;;11.20;10.03;;;;;;;8.30;76.20;96050.94;7018540;27;20218;-73
2020/12/18 04:41:44;;;;;;;14.23;8.70;;;;;;;8.28;76.37;96058.06;7011828;28;20219;-72
2020/12/18 04:45:05;;;;;;;7.97;7.17;;;;;;;8.15;75.86;96058.88;7025383;28;20222;-73
2020/12/18 04:48:27;;;;;;;21.50;11.73;;;;;;;8.12;76.06;96047.66;7022307;28;20301;-72
2020/12/18 04:51:47;;;;;;;10.33;8.03;;;;;;;8.00;75.84;96053.75;7003058;28;20305;-72
2020/12/18 04:55:11;;;;;;;11.83;9.00;;;;;;;7.84;76.06;96053.94;6988397;28;20214;-73
2020/12/18 04:58:32;;;;;;;7.80;6.87;;;;;;;7.78;76.19;96058.78;7020703;28;20220;-73
2020/12/18 05:01:56;;;;;;;9.27;7.27;;;;;;;7.78;76.11;96054.34;7018657;28;20213;-72
2020/12/18 05:05:16;;;;;;;7.70;6.27;;;;;;;7.76;76.34;96046.50;7013618;28;20283;-72
2020/12/18 05:08:37;;;;;;;8.83;6.07;;;;;;;7.76;77.00;96043.00;7039005;27;20711;-72
2020/12/18 05:12:05;;;;;;;7.37;6.10;;;;;;;7.73;76.73;96049.34;6980300;28;20217;-72
2020/12/18 05:15:26;;;;;;;10.10;6.77;;;;;;;7.75;77.19;96043.94;7018644;28;20262;-73
2020/12/18 05:18:48;;;;;;;9.80;7.07;;;;;;;7.79;76.65;96045.47;7024736;27;20220;-67
2020/12/18 05:22:12;;;;;;;7.50;5.87;;;;;;;7.82;76.40;96047.88;7016843;27;20225;-74
2020/12/18 05:25:33;;;;;;;7.87;4.83;;;;;;;7.82;76.04;96050.53;7005676;28;20320;-73
2020/12/18 05:29:12;;;;;;;300.07;12.93;;;;;;;7.74;75.20;96055.47;7011104;28;20808;-74
2020/12/18 05:32:36;;;;;;;6.20;5.60;;;;;;;7.65;75.14;96064.84;7025505;28;20221;-74
2020/12/18 05:35:58;;;;;;;56.40;10.23;;;;;;;7.54;74.99;96059.41;7019189;28;20201;-74
2020/12/18 05:39:20;;;;;;;43.07;9.63;;;;;;;7.44;74.60;96054.81;7007517;27;20218;-74
2020/12/18 05:42:46;;;;;;;6.63;5.93;;;;;;;7.23;74.40;96065.78;7021447;28;20346;-74
2020/12/18 05:46:17;;;;;;;7.20;5.67;;;;;;;7.14;75.26;96058.41;7010255;28;20205;-74
2020/12/18 05:49:41;;;;;;;5.30;4.80;;;;;;;7.17;76.04;96058.25;7005677;28;20232;-73
2020/12/18 05:53:04;;;;;;;5.40;4.63;;;;;;;7.22;76.40;96055.31;7020069;28;20249;-74
2020/12/18 05:56:28;;;;;;;4.50;4.07;;;;;;;7.28;77.04;96052.28;7005982;28;20206;-74
2020/12/18 05:59:49;;;;;;;6.33;4.87;;;;;;;7.36;76.80;96055.28;7019396;28;20338;-74
2020/12/18 06:03:11;;;;;;;77.13;5.80;;;;;;;7.25;75.57;96050.69;7009656;28;20613;-74
2020/12/18 06:06:35;;;;;;;127.60;6.50;;;;;;;7.16;74.96;96061.81;7010603;28;20233;-73
2020/12/18 06:09:56;;;;;;;140.80;7.60;;;;;;;7.08;75.35;96073.81;6998606;28;20325;-72
2020/12/18 06:13:17;;;;;;;187.13;9.30;;;;;;;6.99;75.79;96067.28;7022478;28;20328;-74
2020/12/18 06:16:48;;;;;;;131.67;6.83;;;;;;;6.88;75.33;96072.41;7006745;28;20206;-72
2020/12/18 06:20:14;;;;;;;208.30;8.40;;;;;;;6.82;75.78;96076.25;7016507;28;20214;-73
2020/12/18 06:23:36;;;;;;;171.17;6.77;;;;;;;6.82;75.51;96075.41;6991086;28;20209;-74
2020/12/18 06:26:57;;;;;;;506.43;16.03;;;;;;;6.81;75.25;96079.00;7017945;28;20352;-73
2020/12/18 06:30:18;;;;;;;326.60;26.03;;;;;;;6.73;76.78;96079.47;7024002;28;20222;-73
2020/12/18 06:33:51;;;;;;;1310.70;121.73;;;;;;;6.65;78.55;96086.97;7018842;28;20263;-73
2020/12/18 06:37:25;;;;;;;1625.73;150.33;;;;;;;6.53;79.87;96087.75;7011815;28;20210;-72
2020/12/18 06:40:45;;;;;;;574.30;42.17;;;;;;;6.46;80.55;96083.75;6987913;28;20266;-72
2020/12/18 06:44:05;;;;;;;1238.33;105.97;;;;;;;6.45;80.92;96080.25;6998471;28;20241;-73
2020/12/18 06:47:26;;;;;;;396.30;22.73;;;;;;;6.44;80.82;96080.34;6978627;28;20225;-73
2020/12/18 06:50:46;;;;;;;1021.30;88.93;;;;;;;6.43;80.70;96079.53;6984309;28;20706;-73
2020/12/18 06:54:12;;;;;;;199.23;14.40;;;;;;;6.45;80.95;96076.78;6993043;28;20203;-73
2020/12/18 06:57:33;;;;;;;379.90;18.67;;;;;;;6.44;80.74;96075.06;6992346;28;20219;-73
2020/12/18 07:00:54;;;;;;;125.87;11.33;;;;;;;6.36;79.83;96074.69;6993178;28;20221;-72
2020/12/18 07:04:20;;;;;;;92.93;7.93;;;;;;;6.33;79.13;96073.09;6989546;28;20226;-73
2020/12/18 07:07:41;;;;;;;208.37;13.53;;;;;;;6.34;79.58;96074.75;7011700;28;20216;-72
2020/12/18 07:11:12;;;;;;;156.37;11.70;;;;;;;6.44;79.77;96061.88;6976417;28;20223;-72
2020/12/18 07:14:32;;;;;;;88.83;9.33;;;;;;;6.50;79.40;96071.22;7007840;28;20226;-73
2020/12/18 07:17:55;;;;;;;146.00;11.93;;;;;;;6.42;78.25;96076.97;6977944;28;20292;-72
2020/12/18 07:21:17;;;;;;;310.67;14.87;;;;;;;6.39;79.23;96075.34;7000099;28;20598;-73
2020/12/18 07:24:38;;;;;;;309.43;15.53;;;;;;;6.54;79.91;96072.75;6990887;27;20214;-72
2020/12/18 07:27:58;;;;;;;92.00;10.97;;;;;;;6.62;79.95;96065.22;6985557;28;20242;-72
2020/12/18 07:31:24;;;;;;;6.40;5.80;;;;;;;6.70;79.47;96061.16;7008864;28;20648;-72
2020/12/18 07:34:44;;;;;;;6.33;5.03;;;;;;;6.77;78.76;96054.59;6994888;28;20218;-72
2020/12/18 07:38:26;;;;;;;4.00;3.57;;;;;;;7.02;78.48;96061.00;6989778;28;20206;-81
2020/12/18 07:41:49;;;;;;;4.10;2.70;;;;;;;7.14;78.05;96055.78;7012591;27;20232;-80
2020/12/18 07:45:10;;;;;;;4.80;2.90;;;;;;;7.21;77.58;96050.97;6991712;28;20214;-85
2020/12/18 07:48:35;;;;;;;2.93;2.73;;;;;;;7.26;77.27;96064.72;6987867;28;20210;-79
2020/12/18 07:51:55;;;;;;;4.40;4.00;;;;;;;7.32;77.35;96056.44;6987969;28;20248;-75
2020/12/18 07:55:16;;;;;;;3.63;3.23;;;;;;;7.33;76.61;96068.69;6978119;28;20223;-75
2020/12/18 07:59:05;;;;;;;3.30;3.10;;;;;;;7.41;77.02;96071.69;6980813;28;20221;-76
2020/12/18 08:02:28;;;;;;;2.47;2.27;;;;;;;7.44;76.84;96055.66;6991898;28;20226;-75
2020/12/18 08:05:48;;;;;;;4.60;2.10;;;;;;;7.51;77.69;96062.25;6988847;28;20296;-75
2020/12/18 08:09:13;;;;;;;2.50;2.30;;;;;;;7.62;77.90;96059.75;6996131;28;20214;-74
2020/12/18 08:12:34;;;;;;;2.40;2.20;;;;;;;7.72;77.99;96050.28;6998005;28;20835;-73
2020/12/18 08:16:10;;;;;;;919.50;40.53;;;;;;;7.66;76.75;96055.97;6985585;28;20211;-74
2020/12/18 08:19:31;;;;;;;74.13;8.73;;;;;;;7.35;76.67;96064.16;6983262;28;20313;-73
2020/12/18 08:22:51;;;;;;;53.27;8.20;;;;;;;7.29;77.66;96075.13;6988021;28;20230;-73
2020/12/18 08:26:12;;;;;;;22.73;6.93;;;;;;;7.32;77.91;96059.06;6967052;28;20211;-73
2020/12/18 08:29:34;;;;;;;19.70;8.07;;;;;;;7.40;77.96;96054.13;6970980;28;20261;-74
2020/12/18 08:32:57;;;;;;;70.03;9.47;;;;;;;7.47;77.57;96066.03;6987857;28;20214;-73
2020/12/18 08:36:18;;;;;;;25.23;7.60;;;;;;;7.51;77.69;96069.31;6994792;28;20242;-73
2020/12/18 08:39:38;;;;;;;89.23;9.17;;;;;;;7.58;77.73;96068.00;6979499;28;20210;-72
2020/12/18 08:43:00;;;;;;;62.00;9.60;;;;;;;7.65;77.70;96069.28;6967562;28;20793;-73
2020/12/18 08:46:33;;;;;;;32.57;10.70;;;;;;;7.70;77.66;96078.59;6991678;28;20214;-73
2020/12/18 08:49:55;;;;;;;15.53;10.20;;;;;;;7.75;77.57;96073.88;6962685;28;20229;-74
2020/12/18 08:53:18;;;;;;;22.37;6.87;;;;;;;7.78;77.71;96082.56;6993614;28;20299;-74
2020/12/18 08:56:41;;;;;;;6.73;6.10;;;;;;;7.82;77.41;96084.91;6987745;28;20343;-74
2020/12/18 09:00:03;;;;;;;5.90;5.40;;;;;;;7.88;77.31;96083.66;6987426;28;20263;-74
2020/12/18 09:03:24;;;;;;;8.87;6.63;;;;;;;7.93;77.25;96089.50;6983294;28;20211;-75
2020/12/18 09:06:53;;;;;;;9.37;8.47;;;;;;;7.97;76.98;96093.63;6979089;28;20198;-72
2020/12/18 09:10:14;;;;;;;10.13;9.00;;;;;;;8.00;77.17;96086.34;6997274;28;20313;-72
2020/12/18 09:13:37;;;;;;;10.30;9.30;;;;;;;8.02;77.17;96092.41;6986676;28;20225;-73
2020/12/18 09:17:02;;;;;;;10.07;9.07;;;;;;;8.10;77.18;96090.09;6988428;28;20570;-75
2020/12/18 09:20:24;;;;;;;224.50;13.27;;;;;;;8.16;76.80;96091.47;6995615;28;20269;-73
2020/12/18 09:23:46;;;;;;;91.60;11.83;;;;;;;8.19;77.07;96070.97;6960698;28;20281;-74
2020/12/18 09:27:13;;;;;;;10.17;9.17;;;;;;;8.29;77.18;96070.38;6980274;28;20203;-73
2020/12/18 09:30:34;;;;;;;8.03;7.23;;;;;;;8.41;77.57;96066.91;6982901;28;20225;-74
2020/12/18 09:33:54;;;;;;;13.30;12.00;;;;;;;8.55;77.59;96075.59;6986264;28;20585;-72
2020/12/18 09:37:17;;;;;;;132.27;11.63;;;;;;;8.61;77.50;96082.28;6990884;28;20215;-74
2020/12/18 09:40:37;;;;;;;12.77;6.77;;;;;;;8.58;77.23;96075.44;6978104;28;20572;-74
2020/12/18 09:44:00;;;;;;;30.83;8.20;;;;;;;8.77;77.33;96069.72;6987876;28;20796;-72
2020/12/18 09:47:23;;;;;;;6.57;5.97;;;;;;;8.94;77.12;96066.75;7002540;28;20206;-72
2020/12/18 09:50:44;;;;;;;9.20;8.30;;;;;;;9.13;76.91;96070.75;7010388;28;20233;-72
2020/12/18 09:54:05;;;;;;;8.80;7.90;;;;;;;9.28;76.51;96073.19;6998262;28;20213;-74
2020/12/18 09:57:28;;;;;;;76.47;9.47;;;;;;;9.47;76.46;96076.22;6987142;28;20215;-74
2020/12/18 10:00:49;;;;;;;20.30;7.77;;;;;;;9.69;75.43;96066.72;6989907;28;20230;-75
2020/12/18 10:04:09;;;;;;;11.27;8.70;;;;;;;9.94;75.17;96053.38;6986030;28;20224;-74
2020/12/18 10:07:32;;;;;;;9.77;7.93;;;;;;;10.31;74.95;96054.19;6987453;28;20208;-71
2020/12/18 10:10:55;;;;;;;7.93;7.10;;;;;;;10.50;73.69;96050.97;6972885;28;20222;-75
2020/12/18 10:14:16;;;;;;;8.87;7.47;;;;;;;10.68;73.13;96049.56;6998107;28;20618;-75
2020/12/18 10:17:36;;;;;;;8.30;7.60;;;;;;;10.81;72.52;96047.69;6995799;28;20746;-74
2020/12/18 10:20:57;;;;;;;8.23;7.53;;;;;;;10.95;72.26;96044.78;6996492;28;20249;-74
2020/12/18 10:24:17;;;;;;;7.77;7.07;;;;;;;11.10;72.11;96048.91;6981434;28;20609;-75
2020/12/18 10:27:38;;;;;;;19.80;8.30;;;;;;;10.99;70.97;96054.22;7005382;28;20760;-74
2020/12/18 10:30:59;;;;;;;8.87;8.07;;;;;;;10.88;71.11;96050.69;6989259;28;20676;-74
2020/12/18 10:34:19;;;;;;;10.30;7.60;;;;;;;11.03;71.14;96044.19;6992905;28;20227;-74
2020/12/18 10:37:39;;;;;;;8.57;7.63;;;;;;;11.82;70.80;96045.88;6994305;28;20209;-75
2020/12/18 10:41:03;;;;;;;8.93;8.17;;;;;;;12.31;69.83;96040.03;6991476;28;20726;-74
2020/12/18 10:44:25;;;;;;;9.77;8.70;;;;;;;12.45;68.03;96032.56;7007218;28;20231;-77
2020/12/18 10:47:48;;;;;;;8.97;8.07;;;;;;;12.83;67.67;96034.63;6998593;28;20563;-73
2020/12/18 10:51:13;;;;;;;21.27;9.80;;;;;;;12.99;66.70;96033.31;6985602;28;20287;-71
2020/12/18 10:54:37;;;;;;;8.90;7.90;;;;;;;13.05;65.91;96014.13;6986111;28;20288;-70
2020/12/18 10:57:58;;;;;;;8.77;7.97;;;;;;;14.37;65.15;96016.53;6989420;28;20231;-71
2020/12/18 11:01:18;;;;;;;9.43;8.50;;;;;;;15.62;61.10;96012.72;6991223;28;20734;-70
2020/12/18 11:04:39;;;;;;;27.17;9.27;;;;;;;15.89;59.48;96002.81;6976570;28;20218;-72
2020/12/18 11:07:59;;;;;;;12.17;8.27;;;;;;;16.18;57.49;95996.44;7021668;28;20213;-72
2020/12/18 11:11:20;;;;;;;17.63;8.23;;;;;;;16.12;56.76;95997.91;6998213;28;20276;-71
2020/12/18 11:14:40;;;;;;;64.53;9.93;;;;;;;15.51;56.65;95997.69;7026699;28;20220;-70
2020/12/18 11:18:01;;;;;;;31.10;10.23;;;;;;;14.85;57.14;96002.25;7006472;28;20598;-72
2020/12/18 11:21:21;;;;;;;37.50;11.97;;;;;;;14.34;58.61;95990.03;7012935;28;20213;-71
2020/12/18 11:24:43;;;;;;;13.60;12.20;;;;;;;14.04;59.72;95979.47;6999728;28;20693;-72
2020/12/18 11:28:04;;;;;;;13.33;12.13;;;;;;;13.91;60.42;95989.59;7000077;28;20233;-72
2020/12/18 11:31:24;;;;;;;12.20;11.10;;;;;;;13.80;60.70;95987.03;6982083;28;20249;-72
2020/12/18 11:34:44;;;;;;;10.40;9.47;;;;;;;13.65;62.07;95998.13;6982433;28;20806;-72
2020/12/18 11:38:05;;;;;;;9.67;8.83;;;;;;;13.52;62.80;95986.84;7006938;28;20253;-71
2020/12/18 11:41:26;;;;;;;8.07;7.37;;;;;;;13.29;63.23;95978.19;7009938;28;20312;-71
2020/12/18 11:44:48;;;;;;;8.90;8.10;;;;;;;13.08;63.82;95976.53;6998466;28;20288;-71
2020/12/18 11:48:09;;;;;;;8.87;8.07;;;;;;;12.97;64.76;95985.50;6992536;28;20254;-71
2020/12/18 11:51:32;;;;;;;7.53;6.83;;;;;;;12.80;65.28;95984.28;6983126;28;20280;-71
2020/12/18 11:54:52;;;;;;;11.03;7.63;;;;;;;12.69;65.63;95979.00;6982503;28;20211;-71
2020/12/18 11:58:13;;;;;;;8.13;7.33;;;;;;;12.70;66.35;95964.72;6997610;28;20825;-71
2020/12/18 12:01:33;;;;;;;8.10;7.30;;;;;;;12.64;66.36;95959.06;6960258;28;20253;-70
2020/12/18 12:04:53;;;;;;;8.67;7.87;;;;;;;12.43;66.65;95962.56;6992519;28;20214;-71
2020/12/18 12:08:17;;;;;;;7.73;7.13;;;;;;;12.34;66.94;95963.38;6946640;28;20217;-71
2020/12/18 12:11:38;;;;;;;8.10;7.40;;;;;;;12.26;67.09;95963.19;6979462;28;20224;-67
2020/12/18 12:14:58;;;;;;;9.20;7.83;;;;;;;12.20;67.23;95962.84;6992798;28;20218;-72
2020/12/18 12:18:19;;;;;;;8.23;7.50;;;;;;;12.15;67.45;95954.38;6982177;28;20219;-71
2020/12/18 12:21:40;;;;;;;10.43;8.50;;;;;;;12.12;67.62;95936.84;6993619;28;20221;-71
2020/12/18 12:25:00;;;;;;;8.87;7.87;;;;;;;12.18;67.95;95946.13;6967827;28;20280;-72
2020/12/18 12:28:23;;;;;;;12.37;10.10;;;;;;;12.17;68.29;95937.28;7001208;27;20679;-71
2020/12/18 12:31:44;;;;;;;11.53;8.67;;;;;;;12.11;68.40;95942.31;6982857;28;20218;-71
2020/12/18 12:35:06;;;;;;;10.17;9.17;;;;;;;12.03;68.66;95926.97;6963241;28;20272;-71
2020/12/18 12:38:29;;;;;;;9.77;7.80;;;;;;;11.97;68.62;95923.00;6996823;28;20218;-72
2020/12/18 12:41:50;;;;;;;8.80;7.97;;;;;;;11.94;68.74;95922.41;6991077;28;20218;-74
2020/12/18 12:45:10;;;;;;;10.13;7.63;;;;;;;11.89;69.16;95922.81;6990108;28;20647;-74
2020/12/18 12:48:31;;;;;;;7.17;6.50;;;;;;;11.90;69.59;95919.19;6985561;28;20223;-74
2020/12/18 12:51:55;;;;;;;7.27;6.60;;;;;;;11.89;69.16;95909.50;6990789;28;20210;-74
2020/12/18 12:55:15;;;;;;;9.17;8.03;;;;;;;11.91;69.23;95904.91;6989127;28;20233;-74
2020/12/18 12:58:36;;;;;;;15.30;10.83;;;;;;;11.96;69.03;95897.38;6979727;28;20544;-74
2020/12/18 13:01:56;;;;;;;9.43;8.03;;;;;;;11.97;69.16;95887.59;6997087;28;22185;-73
2020/12/18 13:05:17;;;;;;;7.60;6.90;;;;;;;12.00;69.00;95881.97;6972616;28;20219;-72
2020/12/18 13:08:37;;;;;;;5.27;4.47;;;;;;;12.02;68.31;95866.75;7001419;28;20216;-66
2020/12/18 13:11:57;;;;;;;7.37;6.07;;;;;;;12.09;67.46;95873.22;6980082;28;20614;-70
2020/12/18 13:15:18;;;;;;;5.17;4.00;;;;;;;12.21;66.39;95868.69;7002973;28;20296;-70
2020/12/18 13:18:38;;;;;;;8.87;5.33;;;;;;;12.36;65.84;95867.38;7000066;28;20220;-70
2020/12/18 13:21:59;;;;;;;5.13;4.57;;;;;;;12.50;65.43;95872.34;7013524;27;20284;-70
2020/12/18 13:25:24;;;;;;;5.30;4.80;;;;;;;12.58;65.71;95871.66;6981910;28;21566;-70
2020/12/18 13:28:47;;;;;;;5.67;5.10;;;;;;;12.63;66.59;95861.44;7018827;28;20254;-70
2020/12/18 13:32:10;;;;;;;6.43;4.67;;;;;;;12.63;66.45;95858.78;7018548;28;20812;-70
2020/12/18 13:35:30;;;;;;;5.13;4.63;;;;;;;12.62;66.61;95854.44;6989718;28;20256;-70
2020/12/18 13:38:51;;;;;;;4.73;4.10;;;;;;;12.61;66.79;95842.94;7024335;28;20300;-70
2020/12/18 13:42:17;;;;;;;4.70;4.30;;;;;;;12.64;67.20;95840.00;7016829;28;20798;-71
2020/12/18 13:45:37;;;;;;;5.27;4.60;;;;;;;12.60;66.96;95848.41;7012777;28;20221;-71
2020/12/18 13:48:58;;;;;;;4.93;4.43;;;;;;;12.51;66.81;95842.06;7000229;28;20326;-70
2020/12/18 13:52:21;;;;;;;4.50;4.10;;;;;;;12.47;67.05;95845.97;7015124;28;20237;-70
2020/12/18 13:55:42;;;;;;;7.63;4.93;;;;;;;12.44;67.23;95841.75;7003262;28;20218;-70
2020/12/18 13:59:03;;;;;;;7.50;6.70;;;;;;;12.40;67.44;95832.34;7012507;28;20343;-71
2020/12/18 14:02:23;;;;;;;8.60;7.80;;;;;;;12.38;67.64;95844.94;7017956;28;20214;-72
2020/12/18 14:05:45;;;;;;;7.80;7.00;;;;;;;12.35;68.30;95839.88;6988791;28;20218;-71
2020/12/18 14:09:06;;;;;;;7.33;6.63;;;;;;;12.32;68.18;95840.13;7026538;28;20692;-71
2020/12/18 14:12:27;;;;;;;8.63;6.77;;;;;;;12.31;68.46;95845.59;7019079;28;20707;-71
2020/12/18 14:15:49;;;;;;;8.53;6.97;;;;;;;12.28;68.47;95844.03;7016460;28;20232;-71
2020/12/18 14:19:13;;;;;;;10.17;7.83;;;;;;;12.25;68.30;95846.13;7012133;28;20293;-71
2020/12/18 14:22:33;;;;;;;7.77;6.97;;;;;;;12.18;68.36;95840.47;7022379;28;20313;-71
2020/12/18 14:25:54;;;;;;;6.93;6.20;;;;;;;12.18;68.64;95831.63;7008195;28;20240;-71
2020/12/18 14:29:14;;;;;;;8.10;6.60;;;;;;;12.18;68.60;95827.16;7023059;28;20237;-71
2020/12/18 14:32:35;;;;;;;7.17;6.43;;;;;;;12.19;68.66;95826.19;7029936;28;20720;-71
2020/12/18 14:35:59;;;;;;;8.27;7.37;;;;;;;12.21;68.77;95823.41;7022405;28;20573;-71
2020/12/18 14:39:19;;;;;;;11.73;7.47;;;;;;;12.22;68.61;95828.56;7033909;28;20217;-71
2020/12/18 14:42:40;;;;;;;9.23;8.40;;;;;;;12.11;68.58;95822.50;7021553;28;20212;-71
2020/12/18 14:46:01;;;;;;;9.70;7.70;;;;;;;12.03;68.74;95821.34;7028357;28;20793;-71
2020/12/18 14:49:21;;;;;;;7.87;7.07;;;;;;;11.97;69.06;95821.84;7000432;28;20221;-71
2020/12/18 14:52:42;;;;;;;8.20;7.40;;;;;;;11.95;69.15;95815.00;7022568;28;20201;-72
2020/12/18 14:56:11;;;;;;;7.90;7.20;;;;;;;11.97;69.51;95818.38;7007295;28;20260;-72
2020/12/18 14:59:31;;;;;;;8.23;7.17;;;;;;;11.98;69.66;95818.22;7013794;28;20312;-71
2020/12/18 15:02:51;;;;;;;6.43;5.80;;;;;;;11.99;69.62;95814.59;6998502;28;20213;-71
2020/12/18 15:06:15;;;;;;;8.80;6.03;;;;;;;12.01;69.53;95806.50;6985120;28;20339;-72
2020/12/18 15:09:36;;;;;;;7.77;7.07;;;;;;;12.01;68.68;95811.81;6960660;28;20226;-73
2020/12/18 15:12:56;;;;;;;7.83;7.07;;;;;;;11.95;68.67;95818.50;6994829;28;20202;-71
2020/12/18 15:16:16;;;;;;;7.20;6.50;;;;;;;11.89;68.77;95820.81;6990497;28;20222;-71
2020/12/18 15:19:39;;;;;;;7.90;7.10;;;;;;;11.81;68.85;95823.31;7009054;27;20214;-72
2020/12/18 15:22:59;;;;;;;9.03;7.00;;;;;;;11.75;68.90;95822.00;6977999;28;20231;-71
2020/12/18 15:26:19;;;;;;;7.60;6.90;;;;;;;11.68;69.04;95820.78;6998929;28;20253;-71
2020/12/18 15:29:42;;;;;;;9.63;8.63;;;;;;;11.57;69.30;95826.16;6998762;28;20728;-76
2020/12/18 15:33:05;;;;;;;9.43;8.50;;;;;;;11.49;69.63;95825.97;6985130;28;20803;-75
2020/12/18 15:36:30;;;;;;;11.23;8.60;;;;;;;11.39;69.69;95828.56;6990636;28;20211;-74
2020/12/18 15:39:53;;;;;;;9.53;8.50;;;;;;;11.36;69.94;95830.63;6988011;28;20222;-75
2020/12/18 15:43:16;;;;;;;8.83;7.87;;;;;;;11.31;69.89;95844.31;7000209;28;20213;-74
2020/12/18 15:46:39;;;;;;;9.87;8.17;;;;;;;11.23;69.70;95837.91;7004075;28;20244;-77
2020/12/18 15:50:04;;;;;;;12.97;9.07;;;;;;;11.15;69.90;95831.44;6984445;28;20313;-75
2020/12/18 15:53:28;;;;;;;9.90;8.77;;;;;;;11.08;69.73;95835.53;6996933;28;20954;-75